sensor_id;sensor_type;location;lat;lon;timestamp;P1;durP1;ratioP1;P2;durP2;ratioP2
56581;SDS011;42463;52.214;21.238;2023-03-01T00:01:14;60.00;;;27.10;;
56581;SDS011;42463;52.214;21.238;2023-03-01T00:03:40;53.20;;;27.20;;
56581;SDS011;42463;52.214;21.238;2023-03-01T00:06:05;47.30;;;23.60;;
56581;SDS011;42463;52.214;21.238;2023-03-01T00:08:31;57.60;;;26.50;;
56581;SDS011;42463;52.214;21.238;2023-03-01T00:11:03;63.20;;;27.60;;
56581;SDS011;42463;52.214;21.238;2023-03-01T00:13:30;55.90;;;26.30;;
56581;SDS011;42463;52.214;21.238;2023-03-01T00:15:55;48.20;;;24.90;;
56581;SDS011;42463;52.214;21.238;2023-03-01T00:18:20;54.40;;;27.20;;
56581;SDS011;42463;52.214;21.238;2023-03-01T00:20:50;50.10;;;24.80;;
56581;SDS011;42463;52.214;21.238;2023-03-01T00:23:15;61.50;;;28.40;;
56581;SDS011;42463;52.214;21.238;2023-03-01T00:25:42;53.90;;;25.60;;
56581;SDS011;42463;52.214;21.238;2023-03-01T00:28:07;56.50;;;27.00;;
56581;SDS011;42463;52.214;21.238;2023-03-01T00:30:32;64.40;;;28.60;;
56581;SDS011;42463;52.214;21.238;2023-03-01T00:32:57;58.10;;;26.90;;
56581;SDS011;42463;52.214;21.238;2023-03-01T00:35:22;54.80;;;27.70;;
56581;SDS011;42463;52.214;21.238;2023-03-01T00:37:46;64.90;;;31.10;;
56581;SDS011;42463;52.214;21.238;2023-03-01T00:40:19;60.30;;;29.60;;
56581;SDS011;42463;52.214;21.238;2023-03-01T00:42:43;62.60;;;29.50;;
56581;SDS011;42463;52.214;21.238;2023-03-01T00:45:09;59.30;;;27.50;;
56581;SDS011;42463;52.214;21.238;2023-03-01T00:47:34;61.70;;;28.40;;
56581;SDS011;42463;52.214;21.238;2023-03-01T00:49:59;57.00;;;28.00;;
56581;SDS011;42463;52.214;21.238;2023-03-01T00:52:23;63.80;;;30.90;;
56581;SDS011;42463;52.214;21.238;2023-03-01T00:54:48;62.10;;;28.10;;
56581;SDS011;42463;52.214;21.238;2023-03-01T00:57:14;64.80;;;31.40;;
56581;SDS011;42463;52.214;21.238;2023-03-01T00:59:38;72.30;;;31.80;;
56581;SDS011;42463;52.214;21.238;2023-03-01T01:02:03;71.30;;;32.50;;
56581;SDS011;42463;52.214;21.238;2023-03-01T01:04:29;65.50;;;31.00;;
56581;SDS011;42463;52.214;21.238;2023-03-01T01:06:53;61.70;;;28.70;;
56581;SDS011;42463;52.214;21.238;2023-03-01T01:09:18;61.50;;;29.40;;
56581;SDS011;42463;52.214;21.238;2023-03-01T01:11:43;69.50;;;31.40;;
56581;SDS011;42463;52.214;21.238;2023-03-01T01:14:09;55.50;;;27.20;;
56581;SDS011;42463;52.214;21.238;2023-03-01T01:16:34;60.90;;;29.00;;
56581;SDS011;42463;52.214;21.238;2023-03-01T01:18:58;64.90;;;28.80;;
56581;SDS011;42463;52.214;21.238;2023-03-01T01:21:23;72.90;;;33.50;;
56581;SDS011;42463;52.214;21.238;2023-03-01T01:23:49;67.30;;;30.80;;
56581;SDS011;42463;52.214;21.238;2023-03-01T01:26:15;70.60;;;31.00;;
56581;SDS011;42463;52.214;21.238;2023-03-01T01:28:41;68.50;;;30.40;;
56581;SDS011;42463;52.214;21.238;2023-03-01T01:31:06;63.00;;;28.70;;
56581;SDS011;42463;52.214;21.238;2023-03-01T01:33:30;70.40;;;31.30;;
56581;SDS011;42463;52.214;21.238;2023-03-01T01:35:55;68.70;;;31.80;;
56581;SDS011;42463;52.214;21.238;2023-03-01T01:38:20;68.50;;;30.90;;
56581;SDS011;42463;52.214;21.238;2023-03-01T01:40:46;70.30;;;33.10;;
56581;SDS011;42463;52.214;21.238;2023-03-01T01:43:14;63.30;;;30.40;;
56581;SDS011;42463;52.214;21.238;2023-03-01T01:45:43;67.60;;;30.80;;
56581;SDS011;42463;52.214;21.238;2023-03-01T01:48:10;70.10;;;33.50;;
56581;SDS011;42463;52.214;21.238;2023-03-01T01:50:39;77.50;;;33.40;;
56581;SDS011;42463;52.214;21.238;2023-03-01T01:53:08;65.60;;;32.00;;
56581;SDS011;42463;52.214;21.238;2023-03-01T01:55:35;72.30;;;33.10;;
56581;SDS011;42463;52.214;21.238;2023-03-01T01:58:04;78.20;;;34.40;;
56581;SDS011;42463;52.214;21.238;2023-03-01T02:04:03;69.20;;;33.60;;
56581;SDS011;42463;52.214;21.238;2023-03-01T02:06:29;65.50;;;30.20;;
56581;SDS011;42463;52.214;21.238;2023-03-01T02:08:59;68.10;;;32.40;;
56581;SDS011;42463;52.214;21.238;2023-03-01T02:11:26;66.50;;;33.10;;
56581;SDS011;42463;52.214;21.238;2023-03-01T02:13:52;75.10;;;33.30;;
56581;SDS011;42463;52.214;21.238;2023-03-01T02:16:17;74.20;;;35.20;;
56581;SDS011;42463;52.214;21.238;2023-03-01T02:18:42;66.80;;;32.70;;
56581;SDS011;42463;52.214;21.238;2023-03-01T02:21:11;74.80;;;31.70;;
56581;SDS011;42463;52.214;21.238;2023-03-01T02:26:05;74.10;;;35.00;;
56581;SDS011;42463;52.214;21.238;2023-03-01T02:28:35;76.40;;;34.00;;
56581;SDS011;42463;52.214;21.238;2023-03-01T02:31:01;69.40;;;32.50;;
56581;SDS011;42463;52.214;21.238;2023-03-01T02:36:11;64.30;;;30.50;;
56581;SDS011;42463;52.214;21.238;2023-03-01T02:38:40;71.00;;;33.40;;
56581;SDS011;42463;52.214;21.238;2023-03-01T02:41:05;74.30;;;32.90;;
56581;SDS011;42463;52.214;21.238;2023-03-01T02:43:32;70.80;;;35.00;;
56581;SDS011;42463;52.214;21.238;2023-03-01T02:46:04;72.80;;;34.30;;
56581;SDS011;42463;52.214;21.238;2023-03-01T02:48:38;68.10;;;32.40;;
56581;SDS011;42463;52.214;21.238;2023-03-01T02:53:35;71.20;;;31.70;;
56581;SDS011;42463;52.214;21.238;2023-03-01T02:56:08;72.60;;;33.20;;
56581;SDS011;42463;52.214;21.238;2023-03-01T02:58:35;76.00;;;35.80;;
56581;SDS011;42463;52.214;21.238;2023-03-01T03:01:07;79.60;;;35.00;;
56581;SDS011;42463;52.214;21.238;2023-03-01T03:03:32;75.70;;;37.20;;
56581;SDS011;42463;52.214;21.238;2023-03-01T03:05:56;73.90;;;35.20;;
56581;SDS011;42463;52.214;21.238;2023-03-01T03:08:21;73.00;;;32.50;;
56581;SDS011;42463;52.214;21.238;2023-03-01T03:10:46;66.00;;;31.40;;
56581;SDS011;42463;52.214;21.238;2023-03-01T03:13:12;65.80;;;30.30;;
56581;SDS011;42463;52.214;21.238;2023-03-01T03:15:38;67.20;;;30.00;;
56581;SDS011;42463;52.214;21.238;2023-03-01T03:18:04;76.80;;;32.80;;
56581;SDS011;42463;52.214;21.238;2023-03-01T03:20:30;64.90;;;29.00;;
56581;SDS011;42463;52.214;21.238;2023-03-01T03:22:56;71.40;;;33.30;;
56581;SDS011;42463;52.214;21.238;2023-03-01T03:25:21;67.90;;;31.80;;
56581;SDS011;42463;52.214;21.238;2023-03-01T03:27:47;68.30;;;33.60;;
56581;SDS011;42463;52.214;21.238;2023-03-01T03:30:18;67.70;;;29.00;;
56581;SDS011;42463;52.214;21.238;2023-03-01T03:32:43;56.90;;;29.20;;
56581;SDS011;42463;52.214;21.238;2023-03-01T03:35:14;69.30;;;31.60;;
56581;SDS011;42463;52.214;21.238;2023-03-01T03:37:39;69.70;;;30.90;;
56581;SDS011;42463;52.214;21.238;2023-03-01T03:40:19;67.70;;;31.70;;
56581;SDS011;42463;52.214;21.238;2023-03-01T03:42:43;66.20;;;31.50;;
56581;SDS011;42463;52.214;21.238;2023-03-01T03:45:09;66.10;;;28.90;;
56581;SDS011;42463;52.214;21.238;2023-03-01T03:47:33;67.40;;;30.30;;
56581;SDS011;42463;52.214;21.238;2023-03-01T03:49:58;67.50;;;31.00;;
56581;SDS011;42463;52.214;21.238;2023-03-01T03:54:45;61.70;;;30.10;;
56581;SDS011;42463;52.214;21.238;2023-03-01T03:57:09;67.40;;;30.80;;
56581;SDS011;42463;52.214;21.238;2023-03-01T03:59:34;60.20;;;29.00;;
56581;SDS011;42463;52.214;21.238;2023-03-01T04:01:58;63.00;;;28.80;;
56581;SDS011;42463;52.214;21.238;2023-03-01T04:04:23;68.20;;;31.70;;
56581;SDS011;42463;52.214;21.238;2023-03-01T04:06:48;65.80;;;30.70;;
56581;SDS011;42463;52.214;21.238;2023-03-01T04:09:12;56.90;;;26.70;;
56581;SDS011;42463;52.214;21.238;2023-03-01T04:11:36;61.20;;;27.40;;
56581;SDS011;42463;52.214;21.238;2023-03-01T04:14:01;66.30;;;31.30;;
56581;SDS011;42463;52.214;21.238;2023-03-01T04:16:26;58.00;;;27.70;;
56581;SDS011;42463;52.214;21.238;2023-03-01T04:18:51;63.30;;;30.10;;
56581;SDS011;42463;52.214;21.238;2023-03-01T04:21:16;64.80;;;29.10;;
56581;SDS011;42463;52.214;21.238;2023-03-01T04:23:42;62.00;;;28.70;;
56581;SDS011;42463;52.214;21.238;2023-03-01T04:26:06;70.50;;;30.20;;
56581;SDS011;42463;52.214;21.238;2023-03-01T04:28:32;61.00;;;27.30;;
56581;SDS011;42463;52.214;21.238;2023-03-01T04:31:01;63.80;;;29.20;;
56581;SDS011;42463;52.214;21.238;2023-03-01T04:33:34;69.20;;;30.90;;
56581;SDS011;42463;52.214;21.238;2023-03-01T04:35:59;60.90;;;30.10;;
56581;SDS011;42463;52.214;21.238;2023-03-01T04:38:26;68.10;;;30.10;;
56581;SDS011;42463;52.214;21.238;2023-03-01T04:40:51;58.80;;;29.30;;
56581;SDS011;42463;52.214;21.238;2023-03-01T04:43:15;63.40;;;29.30;;
56581;SDS011;42463;52.214;21.238;2023-03-01T04:45:40;65.50;;;29.20;;
56581;SDS011;42463;52.214;21.238;2023-03-01T04:48:05;67.30;;;28.90;;
56581;SDS011;42463;52.214;21.238;2023-03-01T04:50:30;64.60;;;28.10;;
56581;SDS011;42463;52.214;21.238;2023-03-01T04:52:55;63.10;;;30.40;;
56581;SDS011;42463;52.214;21.238;2023-03-01T04:55:20;65.50;;;29.70;;
56581;SDS011;42463;52.214;21.238;2023-03-01T04:57:47;65.50;;;29.40;;
56581;SDS011;42463;52.214;21.238;2023-03-01T05:00:14;67.00;;;32.40;;
56581;SDS011;42463;52.214;21.238;2023-03-01T05:02:44;64.30;;;30.90;;
56581;SDS011;42463;52.214;21.238;2023-03-01T05:05:14;64.40;;;29.40;;
56581;SDS011;42463;52.214;21.238;2023-03-01T05:07:39;61.90;;;29.20;;
56581;SDS011;42463;52.214;21.238;2023-03-01T05:10:05;63.50;;;29.20;;
56581;SDS011;42463;52.214;21.238;2023-03-01T05:12:30;63.40;;;29.90;;
56581;SDS011;42463;52.214;21.238;2023-03-01T05:14:55;61.40;;;28.40;;
56581;SDS011;42463;52.214;21.238;2023-03-01T05:17:20;67.50;;;30.30;;
56581;SDS011;42463;52.214;21.238;2023-03-01T05:19:45;68.00;;;28.10;;
56581;SDS011;42463;52.214;21.238;2023-03-01T05:22:09;60.00;;;28.90;;
56581;SDS011;42463;52.214;21.238;2023-03-01T05:24:35;66.00;;;29.70;;
56581;SDS011;42463;52.214;21.238;2023-03-01T05:27:00;70.80;;;31.90;;
56581;SDS011;42463;52.214;21.238;2023-03-01T05:29:25;65.60;;;30.60;;
56581;SDS011;42463;52.214;21.238;2023-03-01T05:31:52;63.40;;;29.60;;
56581;SDS011;42463;52.214;21.238;2023-03-01T05:34:17;63.50;;;29.00;;
56581;SDS011;42463;52.214;21.238;2023-03-01T05:36:44;61.40;;;27.80;;
56581;SDS011;42463;52.214;21.238;2023-03-01T05:39:08;62.10;;;30.00;;
56581;SDS011;42463;52.214;21.238;2023-03-01T05:41:33;58.50;;;27.70;;
56581;SDS011;42463;52.214;21.238;2023-03-01T05:43:57;63.40;;;29.00;;
56581;SDS011;42463;52.214;21.238;2023-03-01T05:46:22;62.10;;;28.00;;
56581;SDS011;42463;52.214;21.238;2023-03-01T05:48:47;65.30;;;29.70;;
56581;SDS011;42463;52.214;21.238;2023-03-01T05:51:11;62.90;;;28.50;;
56581;SDS011;42463;52.214;21.238;2023-03-01T05:53:36;63.10;;;29.50;;
56581;SDS011;42463;52.214;21.238;2023-03-01T05:56:00;59.80;;;27.60;;
56581;SDS011;42463;52.214;21.238;2023-03-01T05:58:27;69.40;;;30.60;;
56581;SDS011;42463;52.214;21.238;2023-03-01T06:00:52;60.20;;;27.70;;
56581;SDS011;42463;52.214;21.238;2023-03-01T06:03:17;61.80;;;26.70;;
56581;SDS011;42463;52.214;21.238;2023-03-01T06:05:42;65.50;;;28.10;;
56581;SDS011;42463;52.214;21.238;2023-03-01T06:08:07;58.60;;;27.20;;
56581;SDS011;42463;52.214;21.238;2023-03-01T06:10:33;58.60;;;26.30;;
56581;SDS011;42463;52.214;21.238;2023-03-01T06:12:57;68.00;;;28.70;;
56581;SDS011;42463;52.214;21.238;2023-03-01T06:15:22;60.00;;;28.30;;
56581;SDS011;42463;52.214;21.238;2023-03-01T06:17:47;62.30;;;28.10;;
56581;SDS011;42463;52.214;21.238;2023-03-01T06:20:14;56.00;;;26.90;;
56581;SDS011;42463;52.214;21.238;2023-03-01T06:22:39;58.70;;;26.90;;
56581;SDS011;42463;52.214;21.238;2023-03-01T06:25:06;60.00;;;27.00;;
56581;SDS011;42463;52.214;21.238;2023-03-01T06:27:31;61.00;;;27.90;;
56581;SDS011;42463;52.214;21.238;2023-03-01T06:29:56;55.70;;;26.60;;
56581;SDS011;42463;52.214;21.238;2023-03-01T06:32:21;61.10;;;28.20;;
56581;SDS011;42463;52.214;21.238;2023-03-01T06:34:45;59.70;;;26.20;;
56581;SDS011;42463;52.214;21.238;2023-03-01T06:37:09;59.20;;;28.10;;
56581;SDS011;42463;52.214;21.238;2023-03-01T06:39:34;64.10;;;28.40;;
56581;SDS011;42463;52.214;21.238;2023-03-01T06:41:59;63.70;;;29.70;;
56581;SDS011;42463;52.214;21.238;2023-03-01T06:44:24;61.90;;;26.70;;
56581;SDS011;42463;52.214;21.238;2023-03-01T06:46:48;55.70;;;26.90;;
56581;SDS011;42463;52.214;21.238;2023-03-01T06:49:13;63.10;;;28.20;;
56581;SDS011;42463;52.214;21.238;2023-03-01T06:51:38;63.80;;;28.20;;
56581;SDS011;42463;52.214;21.238;2023-03-01T06:54:03;59.00;;;26.70;;
56581;SDS011;42463;52.214;21.238;2023-03-01T06:56:28;60.40;;;26.70;;
56581;SDS011;42463;52.214;21.238;2023-03-01T06:58:52;66.30;;;28.20;;
56581;SDS011;42463;52.214;21.238;2023-03-01T07:03:40;59.00;;;26.90;;
56581;SDS011;42463;52.214;21.238;2023-03-01T07:06:06;63.00;;;28.90;;
56581;SDS011;42463;52.214;21.238;2023-03-01T07:08:30;64.70;;;28.00;;
56581;SDS011;42463;52.214;21.238;2023-03-01T07:10:58;54.00;;;25.30;;
56581;SDS011;42463;52.214;21.238;2023-03-01T07:13:24;46.00;;;22.80;;
56581;SDS011;42463;52.214;21.238;2023-03-01T07:15:52;58.10;;;26.00;;
56581;SDS011;42463;52.214;21.238;2023-03-01T07:18:17;61.80;;;26.60;;
56581;SDS011;42463;52.214;21.238;2023-03-01T07:20:41;47.90;;;23.20;;
56581;SDS011;42463;52.214;21.238;2023-03-01T07:23:06;59.70;;;26.40;;
56581;SDS011;42463;52.214;21.238;2023-03-01T07:25:30;61.80;;;27.40;;
56581;SDS011;42463;52.214;21.238;2023-03-01T07:27:55;52.80;;;24.20;;
56581;SDS011;42463;52.214;21.238;2023-03-01T07:30:20;63.40;;;27.80;;
56581;SDS011;42463;52.214;21.238;2023-03-01T07:32:48;58.80;;;28.50;;
56581;SDS011;42463;52.214;21.238;2023-03-01T07:35:12;53.10;;;25.40;;
56581;SDS011;42463;52.214;21.238;2023-03-01T07:37:37;57.50;;;24.90;;
56581;SDS011;42463;52.214;21.238;2023-03-01T07:40:02;53.70;;;24.90;;
56581;SDS011;42463;52.214;21.238;2023-03-01T07:42:28;56.20;;;24.90;;
56581;SDS011;42463;52.214;21.238;2023-03-01T07:44:53;48.70;;;23.60;;
56581;SDS011;42463;52.214;21.238;2023-03-01T07:47:17;62.70;;;25.10;;
56581;SDS011;42463;52.214;21.238;2023-03-01T07:49:42;53.70;;;26.40;;
56581;SDS011;42463;52.214;21.238;2023-03-01T07:52:06;55.40;;;24.70;;
56581;SDS011;42463;52.214;21.238;2023-03-01T07:54:32;50.60;;;22.60;;
56581;SDS011;42463;52.214;21.238;2023-03-01T07:56:57;55.30;;;24.30;;
56581;SDS011;42463;52.214;21.238;2023-03-01T07:59:22;45.00;;;21.60;;
56581;SDS011;42463;52.214;21.238;2023-03-01T08:01:50;47.80;;;22.80;;
56581;SDS011;42463;52.214;21.238;2023-03-01T08:04:15;38.70;;;18.70;;
56581;SDS011;42463;52.214;21.238;2023-03-01T08:06:40;48.30;;;21.60;;
56581;SDS011;42463;52.214;21.238;2023-03-01T08:09:04;43.30;;;20.40;;
56581;SDS011;42463;52.214;21.238;2023-03-01T08:11:29;45.90;;;20.20;;
56581;SDS011;42463;52.214;21.238;2023-03-01T08:13:54;40.60;;;17.80;;
56581;SDS011;42463;52.214;21.238;2023-03-01T08:16:18;40.50;;;18.10;;
56581;SDS011;42463;52.214;21.238;2023-03-01T08:18:43;25.20;;;11.80;;
56581;SDS011;42463;52.214;21.238;2023-03-01T08:21:08;32.10;;;15.60;;
56581;SDS011;42463;52.214;21.238;2023-03-01T08:23:33;35.50;;;16.50;;
56581;SDS011;42463;52.214;21.238;2023-03-01T08:26:04;29.50;;;15.70;;
56581;SDS011;42463;52.214;21.238;2023-03-01T08:28:30;32.70;;;15.60;;
56581;SDS011;42463;52.214;21.238;2023-03-01T08:30:55;30.20;;;14.90;;
56581;SDS011;42463;52.214;21.238;2023-03-01T08:33:19;32.70;;;15.20;;
56581;SDS011;42463;52.214;21.238;2023-03-01T08:35:43;29.40;;;13.60;;
56581;SDS011;42463;52.214;21.238;2023-03-01T08:38:08;31.00;;;15.80;;
56581;SDS011;42463;52.214;21.238;2023-03-01T08:40:32;33.90;;;15.30;;
56581;SDS011;42463;52.214;21.238;2023-03-01T08:42:57;26.70;;;13.20;;
56581;SDS011;42463;52.214;21.238;2023-03-01T08:45:22;32.80;;;14.50;;
56581;SDS011;42463;52.214;21.238;2023-03-01T08:47:47;31.30;;;15.00;;
56581;SDS011;42463;52.214;21.238;2023-03-01T08:50:14;30.00;;;14.80;;
56581;SDS011;42463;52.214;21.238;2023-03-01T08:52:39;32.00;;;15.60;;
56581;SDS011;42463;52.214;21.238;2023-03-01T08:55:05;28.00;;;13.40;;
56581;SDS011;42463;52.214;21.238;2023-03-01T08:57:30;28.20;;;13.10;;
56581;SDS011;42463;52.214;21.238;2023-03-01T08:59:54;25.10;;;13.20;;
56581;SDS011;42463;52.214;21.238;2023-03-01T09:02:19;28.70;;;14.40;;
56581;SDS011;42463;52.214;21.238;2023-03-01T09:04:44;26.90;;;12.50;;
56581;SDS011;42463;52.214;21.238;2023-03-01T09:07:09;30.00;;;12.60;;
56581;SDS011;42463;52.214;21.238;2023-03-01T09:09:34;27.00;;;13.60;;
56581;SDS011;42463;52.214;21.238;2023-03-01T09:11:59;32.70;;;13.60;;
56581;SDS011;42463;52.214;21.238;2023-03-01T09:14:24;30.00;;;13.40;;
56581;SDS011;42463;52.214;21.238;2023-03-01T09:16:50;31.00;;;14.30;;
56581;SDS011;42463;52.214;21.238;2023-03-01T09:19:14;29.00;;;12.80;;
56581;SDS011;42463;52.214;21.238;2023-03-01T09:21:39;29.70;;;14.20;;
56581;SDS011;42463;52.214;21.238;2023-03-01T09:24:14;28.70;;;14.10;;
56581;SDS011;42463;52.214;21.238;2023-03-01T09:26:38;24.60;;;13.70;;
56581;SDS011;42463;52.214;21.238;2023-03-01T09:29:03;28.90;;;14.20;;
56581;SDS011;42463;52.214;21.238;2023-03-01T09:31:27;26.10;;;13.20;;
56581;SDS011;42463;52.214;21.238;2023-03-01T09:33:52;20.10;;;10.10;;
56581;SDS011;42463;52.214;21.238;2023-03-01T09:36:18;25.40;;;12.40;;
56581;SDS011;42463;52.214;21.238;2023-03-01T09:38:45;29.60;;;13.50;;
56581;SDS011;42463;52.214;21.238;2023-03-01T09:41:11;25.00;;;12.20;;
56581;SDS011;42463;52.214;21.238;2023-03-01T09:43:49;26.50;;;13.40;;
56581;SDS011;42463;52.214;21.238;2023-03-01T09:46:17;20.30;;;11.40;;
56581;SDS011;42463;52.214;21.238;2023-03-01T09:48:44;25.00;;;12.60;;
56581;SDS011;42463;52.214;21.238;2023-03-01T09:51:14;26.90;;;14.20;;
56581;SDS011;42463;52.214;21.238;2023-03-01T09:53:45;27.60;;;13.70;;
56581;SDS011;42463;52.214;21.238;2023-03-01T09:56:12;26.20;;;13.60;;
56581;SDS011;42463;52.214;21.238;2023-03-01T09:58:45;27.30;;;14.60;;
56581;SDS011;42463;52.214;21.238;2023-03-01T10:01:23;30.60;;;13.80;;
56581;SDS011;42463;52.214;21.238;2023-03-01T10:03:59;27.30;;;13.60;;
56581;SDS011;42463;52.214;21.238;2023-03-01T10:06:32;26.20;;;13.20;;
56581;SDS011;42463;52.214;21.238;2023-03-01T10:08:58;28.30;;;13.80;;
56581;SDS011;42463;52.214;21.238;2023-03-01T10:11:30;27.90;;;13.20;;
56581;SDS011;42463;52.214;21.238;2023-03-01T10:13:58;24.50;;;13.00;;
56581;SDS011;42463;52.214;21.238;2023-03-01T10:16:38;24.60;;;12.50;;
56581;SDS011;42463;52.214;21.238;2023-03-01T10:19:10;27.70;;;14.60;;
56581;SDS011;42463;52.214;21.238;2023-03-01T10:21:37;26.40;;;14.00;;
56581;SDS011;42463;52.214;21.238;2023-03-01T10:24:10;23.10;;;11.40;;
56581;SDS011;42463;52.214;21.238;2023-03-01T10:26:40;31.10;;;12.80;;
56581;SDS011;42463;52.214;21.238;2023-03-01T10:29:15;23.00;;;11.00;;
56581;SDS011;42463;52.214;21.238;2023-03-01T10:31:42;23.40;;;12.80;;
56581;SDS011;42463;52.214;21.238;2023-03-01T10:34:12;22.50;;;10.90;;
56581;SDS011;42463;52.214;21.238;2023-03-01T10:36:39;18.10;;;9.00;;
56581;SDS011;42463;52.214;21.238;2023-03-01T10:39:05;21.10;;;11.10;;
56581;SDS011;42463;52.214;21.238;2023-03-01T10:41:37;22.80;;;12.40;;
56581;SDS011;42463;52.214;21.238;2023-03-01T10:44:34;26.60;;;13.50;;
56581;SDS011;42463;52.214;21.238;2023-03-01T10:47:01;21.00;;;11.20;;
56581;SDS011;42463;52.214;21.238;2023-03-01T10:49:26;27.30;;;15.40;;
56581;SDS011;42463;52.214;21.238;2023-03-01T10:51:51;29.40;;;15.10;;
56581;SDS011;42463;52.214;21.238;2023-03-01T10:54:18;28.50;;;15.40;;
56581;SDS011;42463;52.214;21.238;2023-03-01T10:56:48;29.20;;;14.10;;
56581;SDS011;42463;52.214;21.238;2023-03-01T10:59:21;28.80;;;14.30;;
56581;SDS011;42463;52.214;21.238;2023-03-01T11:01:49;29.30;;;16.10;;
56581;SDS011;42463;52.214;21.238;2023-03-01T11:04:26;30.70;;;14.40;;
56581;SDS011;42463;52.214;21.238;2023-03-01T11:06:57;30.00;;;15.20;;
56581;SDS011;42463;52.214;21.238;2023-03-01T11:09:23;31.30;;;16.00;;
56581;SDS011;42463;52.214;21.238;2023-03-01T11:11:52;29.40;;;15.90;;
56581;SDS011;42463;52.214;21.238;2023-03-01T11:14:20;27.50;;;15.20;;
56581;SDS011;42463;52.214;21.238;2023-03-01T11:16:47;29.40;;;15.80;;
56581;SDS011;42463;52.214;21.238;2023-03-01T11:19:21;28.40;;;14.60;;
56581;SDS011;42463;52.214;21.238;2023-03-01T11:21:52;26.70;;;15.30;;
56581;SDS011;42463;52.214;21.238;2023-03-01T11:24:22;23.60;;;13.20;;
56581;SDS011;42463;52.214;21.238;2023-03-01T11:26:53;24.20;;;12.40;;
56581;SDS011;42463;52.214;21.238;2023-03-01T11:29:21;28.90;;;14.70;;
56581;SDS011;42463;52.214;21.238;2023-03-01T11:31:56;23.40;;;12.80;;
56581;SDS011;42463;52.214;21.238;2023-03-01T11:34:27;25.90;;;14.20;;
56581;SDS011;42463;52.214;21.238;2023-03-01T11:37:01;20.90;;;11.20;;
56581;SDS011;42463;52.214;21.238;2023-03-01T11:39:34;22.90;;;12.70;;
56581;SDS011;42463;52.214;21.238;2023-03-01T11:42:06;24.60;;;12.80;;
56581;SDS011;42463;52.214;21.238;2023-03-01T11:44:35;23.40;;;12.70;;
56581;SDS011;42463;52.214;21.238;2023-03-01T11:47:07;22.80;;;12.60;;
56581;SDS011;42463;52.214;21.238;2023-03-01T11:49:44;23.10;;;13.60;;
56581;SDS011;42463;52.214;21.238;2023-03-01T11:52:21;22.20;;;12.20;;
56581;SDS011;42463;52.214;21.238;2023-03-01T11:54:57;19.10;;;11.30;;
56581;SDS011;42463;52.214;21.238;2023-03-01T11:57:46;18.60;;;11.40;;
56581;SDS011;42463;52.214;21.238;2023-03-01T12:00:25;22.40;;;12.30;;
56581;SDS011;42463;52.214;21.238;2023-03-01T12:03:23;20.60;;;12.10;;
56581;SDS011;42463;52.214;21.238;2023-03-01T12:06:02;25.20;;;13.90;;
56581;SDS011;42463;52.214;21.238;2023-03-01T12:08:35;23.40;;;13.50;;
56581;SDS011;42463;52.214;21.238;2023-03-01T12:11:06;21.20;;;12.50;;
56581;SDS011;42463;52.214;21.238;2023-03-01T12:13:49;25.70;;;12.70;;
56581;SDS011;42463;52.214;21.238;2023-03-01T12:16:23;23.80;;;13.70;;
56581;SDS011;42463;52.214;21.238;2023-03-01T12:19:06;19.90;;;11.60;;
56581;SDS011;42463;52.214;21.238;2023-03-01T12:21:44;24.50;;;12.40;;
56581;SDS011;42463;52.214;21.238;2023-03-01T12:24:35;22.20;;;13.30;;
56581;SDS011;42463;52.214;21.238;2023-03-01T12:27:20;25.00;;;13.70;;
56581;SDS011;42463;52.214;21.238;2023-03-01T12:30:01;23.70;;;13.10;;
56581;SDS011;42463;52.214;21.238;2023-03-01T12:32:45;22.10;;;12.40;;
56581;SDS011;42463;52.214;21.238;2023-03-01T12:35:19;18.70;;;11.40;;
56581;SDS011;42463;52.214;21.238;2023-03-01T12:38:08;20.30;;;9.70;;
56581;SDS011;42463;52.214;21.238;2023-03-01T12:40:50;17.10;;;10.30;;
56581;SDS011;42463;52.214;21.238;2023-03-01T12:43:29;16.60;;;9.10;;
56581;SDS011;42463;52.214;21.238;2023-03-01T12:46:05;17.10;;;9.60;;
56581;SDS011;42463;52.214;21.238;2023-03-01T12:48:41;14.80;;;9.60;;
56581;SDS011;42463;52.214;21.238;2023-03-01T12:51:14;18.30;;;10.60;;
56581;SDS011;42463;52.214;21.238;2023-03-01T12:53:43;20.20;;;10.30;;
56581;SDS011;42463;52.214;21.238;2023-03-01T12:56:10;19.00;;;10.70;;
56581;SDS011;42463;52.214;21.238;2023-03-01T12:58:39;17.90;;;9.80;;
56581;SDS011;42463;52.214;21.238;2023-03-01T13:01:14;15.70;;;9.60;;
56581;SDS011;42463;52.214;21.238;2023-03-01T13:03:51;13.50;;;8.70;;
56581;SDS011;42463;52.214;21.238;2023-03-01T13:06:34;14.40;;;8.30;;
56581;SDS011;42463;52.214;21.238;2023-03-01T13:09:04;16.20;;;8.70;;
56581;SDS011;42463;52.214;21.238;2023-03-01T13:11:34;19.70;;;9.70;;
56581;SDS011;42463;52.214;21.238;2023-03-01T13:16:54;14.00;;;8.50;;
56581;SDS011;42463;52.214;21.238;2023-03-01T13:19:20;14.20;;;8.60;;
56581;SDS011;42463;52.214;21.238;2023-03-01T13:21:46;20.50;;;9.90;;
56581;SDS011;42463;52.214;21.238;2023-03-01T13:24:25;18.60;;;9.90;;
56581;SDS011;42463;52.214;21.238;2023-03-01T13:27:20;16.20;;;9.90;;
56581;SDS011;42463;52.214;21.238;2023-03-01T13:29:51;16.50;;;9.20;;
56581;SDS011;42463;52.214;21.238;2023-03-01T13:32:21;16.70;;;9.60;;
56581;SDS011;42463;52.214;21.238;2023-03-01T13:34:53;19.70;;;10.20;;
56581;SDS011;42463;52.214;21.238;2023-03-01T13:37:20;16.10;;;9.90;;
56581;SDS011;42463;52.214;21.238;2023-03-01T13:39:50;13.50;;;8.00;;
56581;SDS011;42463;52.214;21.238;2023-03-01T13:42:35;19.80;;;11.40;;
56581;SDS011;42463;52.214;21.238;2023-03-01T13:45:19;16.40;;;10.00;;
56581;SDS011;42463;52.214;21.238;2023-03-01T13:47:48;15.30;;;9.80;;
56581;SDS011;42463;52.214;21.238;2023-03-01T13:50:18;17.40;;;10.90;;
56581;SDS011;42463;52.214;21.238;2023-03-01T13:52:48;16.30;;;9.80;;
56581;SDS011;42463;52.214;21.238;2023-03-01T13:55:18;14.90;;;9.30;;
56581;SDS011;42463;52.214;21.238;2023-03-01T13:57:46;13.80;;;7.40;;
56581;SDS011;42463;52.214;21.238;2023-03-01T14:00:31;17.90;;;10.20;;
56581;SDS011;42463;52.214;21.238;2023-03-01T14:03:08;13.30;;;8.20;;
56581;SDS011;42463;52.214;21.238;2023-03-01T14:05:34;18.80;;;11.10;;
56581;SDS011;42463;52.214;21.238;2023-03-01T14:08:00;18.80;;;10.90;;
56581;SDS011;42463;52.214;21.238;2023-03-01T14:10:26;21.50;;;10.90;;
56581;SDS011;42463;52.214;21.238;2023-03-01T14:12:57;18.90;;;10.20;;
56581;SDS011;42463;52.214;21.238;2023-03-01T14:15:31;16.60;;;8.70;;
56581;SDS011;42463;52.214;21.238;2023-03-01T14:18:02;19.60;;;10.80;;
56581;SDS011;42463;52.214;21.238;2023-03-01T14:20:37;18.90;;;9.60;;
56581;SDS011;42463;52.214;21.238;2023-03-01T14:23:08;20.80;;;11.60;;
56581;SDS011;42463;52.214;21.238;2023-03-01T14:25:35;20.10;;;10.80;;
56581;SDS011;42463;52.214;21.238;2023-03-01T14:28:04;22.70;;;11.40;;
56581;SDS011;42463;52.214;21.238;2023-03-01T14:30:41;22.30;;;12.00;;
56581;SDS011;42463;52.214;21.238;2023-03-01T14:33:16;21.20;;;11.70;;
56581;SDS011;42463;52.214;21.238;2023-03-01T14:35:51;24.90;;;12.00;;